Terminal Aerodrome Forecast
Issued by NWS

Home | Current Version | Previous Version | Graphics & Text | Print | Product List | Glossary On
Versions: 1 2 3 4 5 6 7 8 9 10 11 12 13 14 15 16 17 18 19 20 21
000
FTUS43 KGRB 240500
TAFCWA
TAF
KCWA 240520Z 2406/2506 22012G21KT 6SM BLSN BKN090 WS012/23040KT
     FM241100 25015G23KT 6SM -SN BLSN SCT025 OVC050 WS012/24040KT
      TEMPO 2411/2415 2SM -SN SCT018 BKN025
     FM241700 30015G25KT 6SM BLSN BKN040
     FM250000 32007KT P6SM SCT050
      AMD LTD TO CLD VIS AND WIND TIL 241200=

USA.gov is the U.S. government's official web portal to all federal, state and local government web resources and services.